메인 페이지
METAR-TAF:

METAR-TAF

공항 :

쿠알라룸푸르 국제공항

쿠알라룸푸르, 말레이시아

위도: 02-44N, 경도: 101-42E, 고도: 21m

현재 날씨관측

예보는 34분 전, 04:30시(UTC)에 발표되었습니다.
남남동6kt풍과 남서풍을 오가는
온도 30°C
습도 70%
기압 1011 hPa
시정 10km 이상
고도 1700ft 상공 구름 조금, 적란운.
고도 28000ft 상공 구름 많음

METAR: WMKK 150430Z 15006KT 100V230 9999 FEW017CB BKN280 30/24 Q1011 NOSIG

시각: 13:04 (05:04 UTC)

예보

예보는 3 시간 28분 전, 01:36시(UTC)에 발표되었습니다.
예보 대상 시간: 15일 02시부터 16일 06시까지 (UTC)
5kt
시정: 9000m
고도 1000ft 상공 구름 조금
고도 1700ft 상공 구름 조금, 적란운.
고도 2800ft 상공 구름 보통
약한비
일시적
15일 02시부터 15일 05시까지 (UTC)
시정: 3000m
고도 800ft 상공 구름 조금
고도 1600ft 상공 구름 조금, 적란운.
고도 2400ft 상공 구름 보통
뇌우, 비
전환 중
15일 04시부터 15일 06시까지 (UTC)
7kt
시정 10km 이상
고도 1700ft 상공 구름 조금, 적란운.
고도 1800ft 상공 구름 보통
일시적
15일 07시부터 15일 11시까지 (UTC)
북북동10kt
시정: 3000m
고도 1000ft 상공 구름 조금
고도 1700ft 상공 구름 조금, 적란운.
고도 1800ft 상공 구름 보통
뇌우, 비
확률 30% :
일시적
15일 16시부터 15일 20시까지 (UTC)
여러 방향의 바람 3kt
시정: 5000m
고도 800ft 상공 구름 조금
고도 1700ft 상공 구름 조금, 적란운.
뇌우, 비

TAF: WMKK 150136Z 1502/1606 19005KT 9000 -RA FEW010 FEW017CB SCT028 TEMPO 1502/1505 3000 TSRA FEW008 FEW016CB SCT024 BECMG 1504/1506 19007KT 9999 NSW FEW017CB SCT018 TEMPO 1507/1511 02010KT 3000 TSRA FEW010 FEW017CB SCT018 PROB30 TEMPO 1516/1520 VRB03KT 5000 TSRA FEW008 FEW017CB

4,000개 이상의 공항 관측 자료 및 예보 (METAR 및 TAF 보고).

지도상에서 검색 가능한 기상관측소가 노란 점과 빨간 점으로 표시되어 있습니다.

기상관측소 명을 보려면 표시 위로 마우스를 이동하세요.

날씨 관측과 예보를 보려면 클릭하세요.

지도 변경 : 확대하려면 엑스 표시가 있는 녹색 버튼, 축소하려면 빼기 표시가 있는 녹색 버튼, 다음 페이지의 지도를 보려면 녹색 화살표를 클릭하세요.


METAR-TAF: